Time;durP1;ratioP1;P1;durP2;ratioP2;P2;SDS_P1;SDS_P2;PMS_P1;PMS_P2;Temp;Humidity;BMP_temperature;BMP_pressure;BME280_temperature;BME280_humidity;BME280_pressure;Samples;Min_cycle;Max_cycle;Signal;HPM_P1;HPM_P2
2021/06/27 00:02:22;;;;;;;13.48;8.40;;;17.00;78.50;;;;;;5079351;28;20025;-70
2021/06/27 00:04:48;;;;;;;17.48;8.25;;;16.90;78.60;;;;;;5079375;28;20475;-70
2021/06/27 00:07:14;;;;;;;13.27;8.70;;;16.90;78.60;;;;;;5079178;28;20031;-69
2021/06/27 00:09:41;;;;;;;12.77;8.88;;;16.80;78.20;;;;;;5079436;28;20028;-70
2021/06/27 00:12:08;;;;;;;15.35;8.82;;;16.80;78.20;;;;;;5078690;28;20027;-70
2021/06/27 00:14:34;;;;;;;13.63;8.95;;;16.80;78.40;;;;;;5079597;28;20107;-70
2021/06/27 00:17:00;;;;;;;16.27;10.00;;;16.80;78.60;;;;;;5079007;28;20060;-70
2021/06/27 00:19:25;;;;;;;15.48;8.18;;;16.80;78.60;;;;;;5074991;28;20387;-70
2021/06/27 00:21:51;;;;;;;13.48;8.35;;;16.80;78.80;;;;;;5079220;28;20076;-70
2021/06/27 00:24:18;;;;;;;14.15;9.13;;;16.80;78.40;;;;;;5079053;28;20023;-70
2021/06/27 00:26:44;;;;;;;13.85;8.30;;;16.80;78.40;;;;;;5078855;28;20031;-70
2021/06/27 00:29:10;;;;;;;13.45;8.68;;;16.80;78.50;;;;;;5078825;28;20025;-70
2021/06/27 00:31:36;;;;;;;16.63;8.80;;;16.80;78.70;;;;;;5078670;28;20033;-70
2021/06/27 00:34:02;;;;;;;14.30;8.07;;;16.80;79.20;;;;;;5078734;28;20103;-70
2021/06/27 00:36:27;;;;;;;14.40;9.25;;;16.80;79.00;;;;;;5078948;28;20510;-70
2021/06/27 00:38:53;;;;;;;14.75;8.82;;;16.80;79.50;;;;;;5078405;28;20033;-70
2021/06/27 00:41:19;;;;;;;13.07;8.45;;;16.80;79.10;;;;;;5078798;28;20028;-70
2021/06/27 00:43:45;;;;;;;12.88;7.57;;;16.80;78.50;;;;;;5078501;28;20031;-70
2021/06/27 00:46:11;;;;;;;12.25;7.75;;;16.80;78.20;;;;;;5078547;28;20025;-69
2021/06/27 00:48:37;;;;;;;13.63;8.23;;;16.80;78.00;;;;;;5078055;28;20364;-69
2021/06/27 00:51:03;;;;;;;13.60;8.85;;;16.80;78.20;;;;;;5078357;28;20101;-69
2021/06/27 00:53:29;;;;;;;13.77;8.38;;;16.80;78.80;;;;;;5076958;28;20024;-69
2021/06/27 00:55:55;;;;;;;13.85;8.48;;;16.80;79.00;;;;;;5078552;28;20040;-69
2021/06/27 00:58:30;;;;;;;15.30;9.27;;;16.80;78.90;;;;;;5078319;28;20017;-70
2021/06/27 01:00:56;;;;;;;13.80;9.10;;;16.80;80.10;;;;;;5078349;28;20495;-70
2021/06/27 01:03:23;;;;;;;15.77;9.00;;;16.80;79.50;;;;;;5078305;28;20110;-70
2021/06/27 01:05:49;;;;;;;12.82;8.15;;;16.80;79.90;;;;;;5078274;28;20029;-70
2021/06/27 01:08:15;;;;;;;13.05;7.47;;;16.80;79.80;;;;;;5077131;28;20505;-69
2021/06/27 01:10:41;;;;;;;14.35;9.02;;;16.80;79.40;;;;;;5077881;28;20029;-70
2021/06/27 01:13:07;;;;;;;15.10;8.70;;;16.80;79.80;;;;;;5077940;28;20028;-70
2021/06/27 01:15:34;;;;;;;14.80;8.75;;;16.80;80.00;;;;;;5077993;28;20049;-70
2021/06/27 01:18:00;;;;;;;12.55;8.50;;;16.80;80.00;;;;;;5077460;28;20078;-69
2021/06/27 01:20:31;;;;;;;17.60;9.40;;;16.80;80.60;;;;;;5059058;28;20017;-70
2021/06/27 01:23:01;;;;;;;14.82;8.90;;;16.80;81.40;;;;;;5077762;28;20013;-70
2021/06/27 01:25:29;;;;;;;14.50;8.52;;;16.70;80.60;;;;;;5077038;28;20048;-69
2021/06/27 01:27:55;;;;;;;16.77;9.40;;;16.70;81.20;;;;;;5078070;28;20473;-69
2021/06/27 01:30:22;;;;;;;13.63;8.48;;;16.70;81.50;;;;;;5077808;28;20043;-70
2021/06/27 01:32:51;;;;;;;13.43;8.43;;;16.70;81.20;;;;;;5077902;28;20020;-70
2021/06/27 01:35:19;;;;;;;13.43;8.98;;;16.60;81.50;;;;;;5077249;28;20035;-69
2021/06/27 01:37:47;;;;;;;13.85;8.30;;;16.60;81.10;;;;;;5077603;28;20054;-70
2021/06/27 01:40:16;;;;;;;13.35;8.05;;;16.60;81.20;;;;;;5077085;28;20032;-70
2021/06/27 01:42:42;;;;;;;14.13;8.07;;;16.70;81.30;;;;;;5068640;28;20025;-70
2021/06/27 01:45:15;;;;;;;13.55;8.52;;;16.60;80.50;;;;;;5077295;28;20120;-70
2021/06/27 01:47:42;;;;;;;13.00;8.32;;;16.60;80.70;;;;;;5077178;28;20112;-70
2021/06/27 01:50:09;;;;;;;15.18;8.55;;;16.60;80.40;;;;;;5077123;28;20028;-70
2021/06/27 01:52:36;;;;;;;14.20;8.30;;;16.60;80.90;;;;;;5077406;28;20021;-70
2021/06/27 01:55:04;;;;;;;14.35;8.70;;;16.60;80.70;;;;;;5074673;28;20028;-69
2021/06/27 01:57:30;;;;;;;12.50;7.88;;;16.60;80.80;;;;;;5077586;28;20070;-70
2021/06/27 01:59:55;;;;;;;14.75;7.72;;;16.60;80.10;;;;;;5077300;28;20056;-70
2021/06/27 02:02:21;;;;;;;10.57;7.13;;;16.60;79.70;;;;;;5075415;28;20025;-69
2021/06/27 02:04:47;;;;;;;11.38;7.40;;;16.70;79.40;;;;;;5077393;28;20043;-70
2021/06/27 02:07:13;;;;;;;12.43;7.50;;;16.60;79.00;;;;;;5077261;28;20028;-70
2021/06/27 02:09:42;;;;;;;10.40;6.50;;;16.60;78.90;;;;;;5077187;28;20078;-70
2021/06/27 02:12:09;;;;;;;10.60;6.55;;;16.60;78.80;;;;;;5077026;28;20020;-69
2021/06/27 02:14:39;;;;;;;9.80;6.40;;;16.60;78.70;;;;;;5077359;28;20028;-69
2021/06/27 02:17:05;;;;;;;10.30;6.63;;;16.60;78.60;;;;;;5077021;28;20093;-70
2021/06/27 02:19:32;;;;;;;10.43;6.18;;;16.60;78.50;;;;;;5076290;28;20463;-69
2021/06/27 02:21:59;;;;;;;11.27;6.05;;;16.70;78.60;;;;;;5077432;28;20021;-69
2021/06/27 02:24:25;;;;;;;10.13;6.57;;;16.70;78.70;;;;;;5076867;28;20499;-70
2021/06/27 02:26:51;;;;;;;10.60;6.55;;;16.70;79.10;;;;;;5076729;28;20035;-70
2021/06/27 02:29:17;;;;;;;10.98;6.60;;;16.60;78.30;;;;;;5077208;28;20025;-70
2021/06/27 02:31:49;;;;;;;10.88;5.93;;;16.70;78.30;;;;;;5077234;28;20100;-69
2021/06/27 02:34:19;;;;;;;12.25;6.78;;;16.70;78.20;;;;;;5077007;28;20020;-69
2021/06/27 02:36:47;;;;;;;9.73;6.20;;;16.70;78.20;;;;;;5077061;28;20032;-70
2021/06/27 02:39:14;;;;;;;12.18;6.90;;;16.70;78.20;;;;;;5076504;28;20032;-70
2021/06/27 02:41:40;;;;;;;11.35;7.03;;;16.60;78.90;;;;;;5076983;28;20025;-69
2021/06/27 02:44:06;;;;;;;10.68;6.22;;;16.60;78.20;;;;;;5076120;28;20029;-70
2021/06/27 02:46:32;;;;;;;13.73;7.82;;;16.60;78.10;;;;;;5076831;28;20033;-69
2021/06/27 02:48:59;;;;;;;12.10;7.90;;;16.60;79.50;;;;;;5076032;28;20947;-69
2021/06/27 02:51:25;;;;;;;12.05;7.88;;;16.60;78.70;;;;;;5077060;28;20396;-69
2021/06/27 02:53:51;;;;;;;13.77;7.97;;;16.60;78.50;;;;;;5076650;28;20391;-69
2021/06/27 02:56:17;;;;;;;12.98;7.53;;;16.60;78.90;;;;;;5076593;28;20032;-69
2021/06/27 02:58:47;;;;;;;14.27;9.40;;;16.50;78.60;;;;;;5076689;28;20028;-70
2021/06/27 03:01:13;;;;;;;14.45;8.00;;;16.50;78.30;;;;;;5077044;28;20084;-70
2021/06/27 03:03:40;;;;;;;15.43;8.35;;;16.50;78.50;;;;;;5076795;28;20020;-69
2021/06/27 03:06:07;;;;;;;13.15;7.75;;;16.50;78.40;;;;;;5076963;28;20025;-69
2021/06/27 03:08:33;;;;;;;11.77;7.35;;;16.50;78.40;;;;;;5076527;28;20506;-70
2021/06/27 03:10:59;;;;;;;13.82;8.07;;;16.60;78.30;;;;;;5076380;28;20013;-69
2021/06/27 03:13:25;;;;;;;16.25;8.52;;;16.50;78.40;;;;;;5076542;28;20070;-69
2021/06/27 03:15:51;;;;;;;12.13;8.15;;;16.50;78.60;;;;;;5076225;28;20037;-69
2021/06/27 03:18:17;;;;;;;16.55;8.55;;;16.50;78.60;;;;;;5074794;28;20046;-70
2021/06/27 03:20:43;;;;;;;13.02;7.93;;;16.50;78.40;;;;;;5072576;28;20024;-70
2021/06/27 03:23:10;;;;;;;12.43;8.05;;;16.50;78.30;;;;;;5074804;28;20044;-69
2021/06/27 03:25:36;;;;;;;12.07;7.20;;;16.50;78.30;;;;;;5067633;28;20036;-70
2021/06/27 03:28:04;;;;;;;14.20;8.90;;;16.50;78.20;;;;;;5076537;28;20021;-70
2021/06/27 03:30:30;;;;;;;15.60;9.45;;;16.50;78.20;;;;;;5078040;28;20024;-70
2021/06/27 03:32:56;;;;;;;14.80;8.52;;;16.50;78.40;;;;;;5079626;28;20035;-70
2021/06/27 03:35:22;;;;;;;14.25;8.23;;;16.50;78.50;;;;;;5079889;28;20037;-70
2021/06/27 03:38:55;;;;;;;14.27;8.30;;;16.50;78.60;;;;;;5079835;28;20024;-70
2021/06/27 03:40:43;;;;;;;12.07;8.10;;;16.50;78.40;;;;;;5079135;28;20040;-70
2021/06/27 03:43:09;;;;;;;10.68;6.88;;;16.60;78.50;;;;;;5079972;28;20017;-70
2021/06/27 03:45:36;;;;;;;13.13;7.75;;;16.50;79.20;;;;;;5079579;28;20052;-70
2021/06/27 03:48:02;;;;;;;14.30;8.35;;;16.50;78.80;;;;;;5078665;28;20084;-70
2021/06/27 03:50:28;;;;;;;12.63;8.18;;;16.60;78.90;;;;;;5078194;28;20427;-70
2021/06/27 03:52:54;;;;;;;14.15;9.75;;;16.50;78.80;;;;;;5078642;28;20516;-70
2021/06/27 03:55:20;;;;;;;16.60;9.18;;;16.60;78.80;;;;;;5079448;28;20077;-70
2021/06/27 03:57:47;;;;;;;19.27;10.05;;;16.50;79.40;;;;;;5079716;28;20025;-70
2021/06/27 04:00:14;;;;;;;13.35;8.45;;;16.50;79.60;;;;;;5077654;28;20040;-69
2021/06/27 04:02:40;;;;;;;15.18;8.82;;;16.50;79.30;;;;;;5075651;28;20040;-69
2021/06/27 04:05:08;;;;;;;15.07;9.02;;;16.50;79.10;;;;;;5078370;28;20029;-71
2021/06/27 04:07:33;;;;;;;14.20;9.02;;;16.50;79.00;;;;;;5078443;28;20025;-72
2021/06/27 04:09:59;;;;;;;15.98;8.65;;;16.50;78.90;;;;;;5078525;28;20028;-67
2021/06/27 04:12:25;;;;;;;12.45;7.53;;;16.50;79.00;;;;;;5079595;28;20107;-69
2021/06/27 04:14:51;;;;;;;15.77;8.45;;;16.50;78.90;;;;;;5079208;28;20471;-70
2021/06/27 04:17:20;;;;;;;13.02;8.38;;;16.50;79.30;;;;;;5078746;28;20406;-68
2021/06/27 04:19:46;;;;;;;12.65;8.13;;;16.50;79.30;;;;;;5073045;28;20053;-71
2021/06/27 04:22:12;;;;;;;11.80;7.65;;;16.50;79.50;;;;;;5079263;28;20017;-71
2021/06/27 04:24:37;;;;;;;14.63;8.13;;;16.50;79.20;;;;;;5078797;28;20589;-68
2021/06/27 04:27:04;;;;;;;13.60;7.38;;;16.50;79.00;;;;;;5083677;28;20028;-69
2021/06/27 04:29:30;;;;;;;13.10;8.82;;;16.50;79.00;;;;;;5079074;28;20031;-69
2021/06/27 04:31:55;;;;;;;13.60;8.65;;;16.50;79.10;;;;;;5078206;28;20411;-69
2021/06/27 04:34:22;;;;;;;14.05;7.65;;;16.50;79.00;;;;;;5078647;28;20097;-71
2021/06/27 04:36:48;;;;;;;12.45;7.85;;;16.50;78.90;;;;;;5078910;28;20544;-71
2021/06/27 04:39:15;;;;;;;12.32;8.18;;;16.50;79.00;;;;;;5078364;28;20033;-71
2021/06/27 04:41:43;;;;;;;14.10;8.45;;;16.50;79.00;;;;;;5078322;28;20017;-72
2021/06/27 04:44:10;;;;;;;14.18;7.78;;;16.50;79.10;;;;;;5078441;28;20449;-69
2021/06/27 04:46:40;;;;;;;13.48;7.03;;;16.50;78.90;;;;;;5078593;28;20077;-71
2021/06/27 04:49:07;;;;;;;12.57;7.75;;;16.50;78.90;;;;;;5078026;28;20086;-69
2021/06/27 04:51:34;;;;;;;12.02;7.13;;;16.60;78.90;;;;;;5078457;28;20024;-69
2021/06/27 04:54:00;;;;;;;10.25;6.32;;;16.50;78.90;;;;;;5077879;28;20117;-68
2021/06/27 04:56:25;;;;;;;10.48;7.05;;;16.50;79.00;;;;;;5078297;28;20020;-69
2021/06/27 04:58:52;;;;;;;11.13;6.90;;;16.60;79.30;;;;;;5077998;28;20082;-70
2021/06/27 05:01:18;;;;;;;12.10;6.45;;;16.50;79.10;;;;;;5076797;28;20461;-70
2021/06/27 05:03:43;;;;;;;10.00;6.57;;;16.60;79.60;;;;;;5077532;28;20064;-71
2021/06/27 05:06:13;;;;;;;12.23;8.02;;;16.50;79.50;;;;;;5077705;28;20064;-70
2021/06/27 05:08:38;;;;;;;26.83;17.42;;;16.50;79.30;;;;;;5075456;28;20039;-70
2021/06/27 05:11:04;;;;;;;32.97;23.33;;;16.50;79.20;;;;;;5077419;28;20510;-71
2021/06/27 05:13:30;;;;;;;24.77;18.40;;;16.60;79.30;;;;;;5077204;28;20025;-70
2021/06/27 05:15:56;;;;;;;18.40;13.77;;;16.60;79.20;;;;;;5076957;28;20040;-70
2021/06/27 05:18:23;;;;;;;13.93;9.88;;;16.60;79.20;;;;;;5060622;28;20514;-70
2021/06/27 05:20:49;;;;;;;12.52;8.48;;;16.60;79.10;;;;;;5061016;28;20020;-70
2021/06/27 05:23:16;;;;;;;12.63;7.95;;;16.60;79.30;;;;;;5071569;28;20047;-70
2021/06/27 05:25:42;;;;;;;9.48;6.57;;;16.70;79.40;;;;;;5077762;28;20025;-70
2021/06/27 05:28:07;;;;;;;8.98;6.15;;;16.70;79.50;;;;;;5077928;28;20036;-70
2021/06/27 05:30:33;;;;;;;11.35;6.15;;;16.70;79.50;;;;;;5077689;28;20418;-71
2021/06/27 05:33:01;;;;;;;9.30;5.88;;;16.70;79.50;;;;;;5076557;28;20078;-70
2021/06/27 05:35:27;;;;;;;10.23;6.03;;;16.80;79.70;;;;;;5077528;28;20052;-70
2021/06/27 05:37:53;;;;;;;10.68;6.78;;;16.80;80.00;;;;;;5077809;28;20038;-70
2021/06/27 05:40:19;;;;;;;12.63;7.63;;;16.80;80.10;;;;;;5077001;28;20032;-71
2021/06/27 05:42:45;;;;;;;11.77;6.35;;;16.80;80.00;;;;;;5076251;28;20021;-71
2021/06/27 05:45:11;;;;;;;11.45;8.45;;;16.90;80.00;;;;;;5075737;28;20024;-70
2021/06/27 05:47:37;;;;;;;13.18;7.75;;;16.90;80.00;;;;;;5077478;28;20025;-71
2021/06/27 05:50:04;;;;;;;13.88;7.78;;;16.90;80.10;;;;;;5069384;28;20025;-70
2021/06/27 05:52:30;;;;;;;12.82;7.13;;;16.90;80.10;;;;;;5068017;28;20033;-70
2021/06/27 05:54:55;;;;;;;12.90;8.30;;;16.80;79.90;;;;;;5074101;28;20088;-71
2021/06/27 05:57:22;;;;;;;11.70;7.55;;;16.80;79.90;;;;;;5087568;28;20517;-70
2021/06/27 05:59:48;;;;;;;12.13;7.63;;;16.90;80.10;;;;;;5078385;28;20027;-70
2021/06/27 06:02:14;;;;;;;14.18;8.90;;;16.90;80.40;;;;;;5077419;28;20067;-70
2021/06/27 06:04:40;;;;;;;15.25;8.25;;;17.00;80.80;;;;;;5076864;28;20023;-70
2021/06/27 06:07:06;;;;;;;14.23;8.70;;;17.10;81.10;;;;;;5077460;28;20020;-70
2021/06/27 06:09:32;;;;;;;15.48;8.98;;;17.20;81.30;;;;;;5076934;28;20031;-70
2021/06/27 06:11:58;;;;;;;14.65;8.40;;;17.30;81.30;;;;;;5077236;28;20039;-70
2021/06/27 06:14:24;;;;;;;12.85;8.30;;;17.40;81.30;;;;;;5076689;28;20028;-71
2021/06/27 06:16:50;;;;;;;14.52;9.07;;;17.50;81.50;;;;;;5076527;28;20128;-71
2021/06/27 06:19:19;;;;;;;12.73;8.65;;;17.50;81.60;;;;;;5068594;28;20017;-71
2021/06/27 06:21:46;;;;;;;12.65;8.43;;;17.60;81.90;;;;;;5068677;28;20029;-72
2021/06/27 06:24:12;;;;;;;13.25;8.35;;;17.70;82.00;;;;;;5076852;28;20025;-71
2021/06/27 06:26:38;;;;;;;14.02;9.32;;;17.80;82.20;;;;;;5078425;28;20030;-71
2021/06/27 06:29:04;;;;;;;12.35;8.18;;;17.90;82.20;;;;;;5065215;28;20076;-71
2021/06/27 06:31:30;;;;;;;16.17;9.60;;;18.10;82.80;;;;;;5074980;28;20017;-71
2021/06/27 06:33:56;;;;;;;11.93;7.95;;;18.30;83.00;;;;;;5076968;28;20028;-71
2021/06/27 06:36:22;;;;;;;13.93;8.45;;;18.40;82.80;;;;;;5077081;28;20021;-71
2021/06/27 06:38:48;;;;;;;11.93;7.82;;;18.40;82.20;;;;;;5075849;28;20506;-71
2021/06/27 06:41:16;;;;;;;11.32;7.85;;;18.40;82.00;;;;;;5077064;28;20020;-71
2021/06/27 06:43:42;;;;;;;12.65;7.88;;;18.50;82.00;;;;;;5076893;28;20027;-71
2021/06/27 06:46:08;;;;;;;10.70;7.45;;;18.40;81.60;;;;;;5075309;28;20142;-71
2021/06/27 06:48:34;;;;;;;11.65;7.75;;;18.30;81.50;;;;;;5076937;28;20024;-71
2021/06/27 06:51:00;;;;;;;11.50;8.10;;;18.30;81.30;;;;;;5076638;28;20433;-71
2021/06/27 06:53:26;;;;;;;11.18;7.05;;;18.30;81.20;;;;;;5077004;28;20017;-71
2021/06/27 06:55:51;;;;;;;13.60;7.90;;;18.20;81.30;;;;;;5076356;28;20512;-71
2021/06/27 06:58:17;;;;;;;11.38;8.30;;;18.30;81.60;;;;;;5076987;28;20118;-71
2021/06/27 07:00:43;;;;;;;11.70;6.80;;;18.40;82.50;;;;;;5076227;28;20025;-71
2021/06/27 07:03:09;;;;;;;12.07;7.50;;;18.70;82.90;;;;;;5076765;28;20025;-71
2021/06/27 07:05:35;;;;;;;11.43;7.25;;;18.80;82.60;;;;;;5072374;28;20025;-71
2021/06/27 07:08:01;;;;;;;11.02;6.90;;;18.90;81.90;;;;;;5075175;28;20107;-71
2021/06/27 07:10:27;;;;;;;10.70;7.32;;;18.90;81.90;;;;;;5076699;28;20048;-71
2021/06/27 07:12:53;;;;;;;10.80;7.00;;;19.00;81.80;;;;;;5080854;28;20095;-71
2021/06/27 07:15:19;;;;;;;8.43;6.18;;;19.00;81.10;;;;;;5080038;28;20055;-71
2021/06/27 07:17:45;;;;;;;10.38;6.38;;;19.00;81.00;;;;;;5088957;28;20031;-71
2021/06/27 07:20:13;;;;;;;10.02;6.45;;;19.00;80.60;;;;;;5081662;28;20021;-71
2021/06/27 07:22:39;;;;;;;10.30;6.47;;;18.90;80.40;;;;;;5080126;28;20020;-71
2021/06/27 07:25:06;;;;;;;10.05;5.93;;;19.00;80.60;;;;;;5079321;28;20028;-71
2021/06/27 07:27:31;;;;;;;7.82;5.72;;;19.10;80.90;;;;;;5080323;28;20034;-71
2021/06/27 07:29:57;;;;;;;10.52;4.90;;;19.30;81.40;;;;;;5080398;28;20025;-71
2021/06/27 07:32:23;;;;;;;9.98;5.65;;;19.80;83.30;;;;;;5079862;28;20021;-72
2021/06/27 07:34:49;;;;;;;8.70;5.25;;;20.40;84.30;;;;;;5079990;28;20063;-72
2021/06/27 07:37:14;;;;;;;7.05;4.50;;;20.90;84.40;;;;;;5079742;28;20031;-71
2021/06/27 07:39:40;;;;;;;6.00;3.55;;;21.40;82.70;;;;;;5079524;28;20085;-72
2021/06/27 07:42:06;;;;;;;7.75;3.67;;;21.60;80.40;;;;;;5079832;28;20023;-72
2021/06/27 07:44:32;;;;;;;8.02;4.18;;;21.70;77.10;;;;;;5078650;28;20471;-71
2021/06/27 07:46:58;;;;;;;7.13;4.18;;;21.50;76.40;;;;;;5079313;28;20025;-72
2021/06/27 07:49:24;;;;;;;7.60;4.53;;;21.30;77.00;;;;;;5079052;28;20043;-71
2021/06/27 07:51:50;;;;;;;6.25;3.92;;;21.20;77.60;;;;;;5078978;28;20029;-71
2021/06/27 07:54:16;;;;;;;7.28;4.03;;;20.90;76.70;;;;;;5079641;28;20076;-71
2021/06/27 07:56:42;;;;;;;6.32;4.03;;;20.80;77.00;;;;;;5078565;28;20475;-71
2021/06/27 07:59:09;;;;;;;7.63;4.60;;;20.50;76.90;;;;;;5073364;28;20031;-71
2021/06/27 08:01:35;;;;;;;6.72;4.40;;;20.40;76.60;;;;;;5076900;28;20024;-72
2021/06/27 08:04:01;;;;;;;8.68;4.75;;;20.20;76.60;;;;;;5079285;28;20021;-72
2021/06/27 08:06:27;;;;;;;11.18;4.70;;;20.00;76.60;;;;;;5079236;28;20032;-71
2021/06/27 08:08:53;;;;;;;7.82;4.75;;;19.90;76.70;;;;;;5067682;28;20025;-71
2021/06/27 08:11:18;;;;;;;10.60;5.13;;;19.80;77.00;;;;;;5079255;28;20032;-71
2021/06/27 08:13:44;;;;;;;7.65;5.32;;;19.70;77.10;;;;;;5078975;28;20025;-71
2021/06/27 08:16:10;;;;;;;7.88;5.75;;;19.70;77.40;;;;;;5076868;28;20036;-71
2021/06/27 08:18:36;;;;;;;12.00;6.38;;;19.80;77.80;;;;;;5078423;28;20550;-71
2021/06/27 08:21:02;;;;;;;13.45;6.88;;;19.80;77.80;;;;;;5078351;28;20023;-71
2021/06/27 08:23:28;;;;;;;9.90;6.55;;;19.90;78.20;;;;;;5077749;28;20032;-71
2021/06/27 08:25:53;;;;;;;9.82;6.38;;;20.00;77.80;;;;;;5078815;28;20075;-71
2021/06/27 08:28:19;;;;;;;7.60;5.95;;;20.10;78.00;;;;;;5079042;28;20036;-71
2021/06/27 08:30:45;;;;;;;7.10;5.18;;;20.20;77.20;;;;;;5078556;28;20032;-71
2021/06/27 08:33:11;;;;;;;6.85;4.47;;;20.20;77.40;;;;;;5079144;28;20075;-70
2021/06/27 08:35:37;;;;;;;7.32;4.63;;;20.20;76.90;;;;;;5079077;28;20162;-72
2021/06/27 08:38:03;;;;;;;7.63;5.00;;;20.20;77.10;;;;;;5069635;28;20056;-71
2021/06/27 08:40:29;;;;;;;7.20;5.70;;;20.30;77.90;;;;;;5075400;28;20086;-71
2021/06/27 08:42:56;;;;;;;7.70;5.40;;;20.40;78.00;;;;;;5072787;28;20028;-71
2021/06/27 08:45:23;;;;;;;9.70;6.00;;;20.50;78.10;;;;;;5078240;28;20521;-72
2021/06/27 08:47:52;;;;;;;7.75;5.03;;;20.60;77.70;;;;;;5074997;28;20020;-71
2021/06/27 08:50:19;;;;;;;10.55;5.70;;;20.60;76.60;;;;;;5080269;28;20025;-72
2021/06/27 08:52:46;;;;;;;39.20;19.48;;;20.60;77.00;;;;;;5077495;28;20610;-71
2021/06/27 08:55:14;;;;;;;74.90;46.35;;;20.60;77.30;;;;;;5078359;28;20077;-70
2021/06/27 08:57:40;;;;;;;20.55;11.32;;;20.60;77.30;;;;;;5079086;28;20043;-70
2021/06/27 09:00:08;;;;;;;19.48;12.35;;;20.60;76.30;;;;;;5078058;28;20021;-70
2021/06/27 09:02:34;;;;;;;25.52;16.02;;;20.60;76.50;;;;;;5078310;28;20499;-70
2021/06/27 09:05:01;;;;;;;24.17;12.32;;;20.60;76.10;;;;;;5078266;28;20117;-71
2021/06/27 09:07:35;;;;;;;18.92;8.93;;;20.60;76.30;;;;;;5064111;28;20028;-71
2021/06/27 09:10:04;;;;;;;9.40;5.60;;;20.60;76.30;;;;;;5074262;28;20043;-71
2021/06/27 09:12:51;;;;;;;7.82;5.05;;;20.60;76.40;;;;;;5078008;28;20056;-71
2021/06/27 09:15:42;;;;;;;8.00;4.88;;;20.60;75.80;;;;;;5076010;28;20021;-71
2021/06/27 09:18:14;;;;;;;6.38;4.70;;;20.60;76.30;;;;;;5079823;28;20038;-71
2021/06/27 09:20:44;;;;;;;8.68;4.90;;;20.40;75.40;;;;;;5076529;28;20033;-71
2021/06/27 09:23:12;;;;;;;8.63;3.78;;;20.30;75.10;;;;;;5078076;28;20024;-71
2021/06/27 09:25:40;;;;;;;7.80;3.72;;;20.20;75.10;;;;;;5075852;28;20017;-70
2021/06/27 09:28:24;;;;;;;7.32;3.92;;;20.10;75.10;;;;;;5076605;28;20036;-71
2021/06/27 09:30:55;;;;;;;6.03;3.13;;;20.00;75.60;;;;;;5076147;28;20064;-71
2021/06/27 09:33:35;;;;;;;7.15;3.75;;;20.00;75.80;;;;;;5077512;28;20099;-74
2021/06/27 09:36:02;;;;;;;7.57;3.58;;;20.00;76.40;;;;;;5051911;28;20064;-72
2021/06/27 09:38:42;;;;;;;5.10;2.88;;;20.00;76.20;;;;;;5076910;28;20036;-71
2021/06/27 09:41:08;;;;;;;5.13;3.47;;;20.00;76.00;;;;;;5076275;28;20035;-72
2021/06/27 09:43:36;;;;;;;6.60;3.63;;;19.90;76.00;;;;;;5077577;28;20479;-70
2021/06/27 09:46:11;;;;;;;5.93;3.50;;;19.90;76.30;;;;;;5076387;28;20387;-71
2021/06/27 09:49:02;;;;;;;8.13;4.10;;;20.00;76.10;;;;;;5077304;28;20024;-72
2021/06/27 09:51:31;;;;;;;6.43;3.78;;;20.00;76.40;;;;;;5074866;28;20111;-72
2021/06/27 09:53:57;;;;;;;8.75;4.25;;;20.00;76.50;;;;;;5074779;28;20031;-70
2021/06/27 09:56:24;;;;;;;7.05;3.55;;;20.10;76.70;;;;;;5075124;28;20886;-72
2021/06/27 09:59:13;;;;;;;9.07;4.18;;;20.10;76.70;;;;;;5075489;28;20207;-70
2021/06/27 10:01:40;;;;;;;6.47;4.00;;;20.10;76.70;;;;;;5077286;28;20028;-72
2021/06/27 10:04:08;;;;;;;7.75;4.70;;;20.10;76.70;;;;;;5076434;28;20055;-75
2021/06/27 10:06:46;;;;;;;7.18;4.60;;;20.10;77.20;;;;;;5072408;28;20032;-71
2021/06/27 10:09:21;;;;;;;14.57;10.10;;;20.20;77.80;;;;;;5075304;28;20025;-70
2021/06/27 10:12:10;;;;;;;35.00;23.58;;;20.30;78.30;;;;;;5072485;28;20024;-70
2021/06/27 10:14:55;;;;;;;13.95;9.00;;;20.40;78.50;;;;;;5074445;28;20039;-70
2021/06/27 10:17:23;;;;;;;13.77;8.10;;;20.40;78.30;;;;;;5075565;28;20044;-74
2021/06/27 10:19:50;;;;;;;7.00;4.57;;;20.60;78.50;;;;;;5075398;28;20032;-72
2021/06/27 10:22:17;;;;;;;8.15;3.85;;;20.70;78.70;;;;;;5076112;28;20510;-71
2021/06/27 10:24:44;;;;;;;6.40;3.40;;;20.80;77.60;;;;;;5075609;28;20012;-71
2021/06/27 10:27:13;;;;;;;7.43;3.83;;;20.80;77.40;;;;;;5073593;28;20150;-72
2021/06/27 10:29:43;;;;;;;6.78;2.90;;;21.00;77.50;;;;;;5073828;28;20371;-72
2021/06/27 10:32:11;;;;;;;4.68;2.80;;;21.20;77.10;;;;;;5058941;28;20123;-72
2021/06/27 10:34:37;;;;;;;4.85;2.42;;;21.50;77.90;;;;;;5074465;28;20052;-74
2021/06/27 10:37:19;;;;;;;7.72;2.92;;;21.80;77.90;;;;;;5076107;28;20029;-76
2021/06/27 10:39:55;;;;;;;7.15;2.90;;;22.30;77.90;;;;;;5078142;28;20040;-73
2021/06/27 10:43:00;;;;;;;4.53;2.15;;;22.70;75.00;;;;;;5079306;28;20047;-75
2021/06/27 10:45:47;;;;;;;5.10;2.28;;;22.90;73.80;;;;;;5065587;28;20041;-75
2021/06/27 10:48:32;;;;;;;5.53;2.58;;;22.90;73.10;;;;;;5080039;28;20029;-74
2021/06/27 10:51:02;;;;;;;17.42;7.65;;;23.00;72.90;;;;;;5078655;28;20182;-73
2021/06/27 10:53:28;;;;;;;96.90;63.08;;;23.30;71.20;;;;;;5078778;28;20055;-75
2021/06/27 10:56:00;;;;;;;197.30;119.93;;;23.60;72.50;;;;;;5080242;28;20032;-77
2021/06/27 10:58:39;;;;;;;282.38;198.13;;;23.80;73.00;;;;;;5069596;28;20020;-72
2021/06/27 11:01:09;;;;;;;218.55;157.05;;;23.90;68.90;;;;;;5079478;28;20528;-75
2021/06/27 11:03:43;;;;;;;99.57;67.63;;;23.80;71.20;;;;;;5079226;28;20029;-74
2021/06/27 11:06:11;;;;;;;93.32;63.20;;;23.60;68.60;;;;;;5078682;28;20029;-75
2021/06/27 11:08:39;;;;;;;36.50;26.85;;;23.40;68.60;;;;;;5079659;28;20399;-79
2021/06/27 11:11:17;;;;;;;19.15;16.35;;;23.30;69.90;;;;;;5071994;28;20064;-74
2021/06/27 11:13:57;;;;;;;15.25;12.35;;;23.30;69.50;;;;;;5078599;28;20047;-75
2021/06/27 11:16:23;;;;;;;99.72;86.75;;;23.60;70.90;;;;;;5079814;28;20068;-75
2021/06/27 11:18:51;;;;;;;418.77;311.38;;;23.80;70.30;;;;;;5078549;28;20051;-74
2021/06/27 11:21:20;;;;;;;899.85;450.88;;;23.80;68.40;;;;;;5067292;28;20026;-78
2021/06/27 11:23:51;;;;;;;83.68;42.45;;;23.60;69.70;;;;;;5079572;28;20032;-75
2021/06/27 11:26:41;;;;;;;31.43;24.47;;;23.40;67.50;;;;;;5079352;28;20021;-76
2021/06/27 11:29:23;;;;;;;83.07;69.72;;;23.10;65.50;;;;;;5077198;28;20262;-72
2021/06/27 11:31:54;;;;;;;8.13;5.63;;;22.70;65.20;;;;;;5073979;28;20016;-71
2021/06/27 11:34:20;;;;;;;4.37;1.40;;;22.40;67.30;;;;;;5079007;28;20027;-71
2021/06/27 11:36:52;;;;;;;3.92;1.40;;;21.90;67.40;;;;;;5080289;28;20060;-71
2021/06/27 11:39:50;;;;;;;4.60;1.73;;;21.50;68.40;;;;;;5077758;28;20078;-71
2021/06/27 11:42:26;;;;;;;7.65;1.13;;;21.20;69.20;;;;;;5078243;28;20029;-72
2021/06/27 11:45:07;;;;;;;3.08;1.00;;;20.90;72.00;;;;;;5079120;28;20036;-71
2021/06/27 11:47:38;;;;;;;5.88;1.20;;;20.60;71.80;;;;;;5079383;28;20055;-74
2021/06/27 11:50:22;;;;;;;3.92;1.25;;;20.50;72.30;;;;;;5073759;28;20028;-72
2021/06/27 11:53:08;;;;;;;3.88;1.33;;;20.30;73.00;;;;;;5078580;28;20434;-72
2021/06/27 11:55:44;;;;;;;4.38;1.45;;;20.20;73.40;;;;;;5078294;28;20035;-76
2021/06/27 11:58:23;;;;;;;3.55;1.38;;;20.10;73.50;;;;;;5073948;28;20103;-74
2021/06/27 12:00:50;;;;;;;4.72;1.20;;;20.00;73.90;;;;;;5080213;28;20024;-72
2021/06/27 12:03:21;;;;;;;4.45;1.40;;;20.00;74.20;;;;;;5079665;28;20027;-71
2021/06/27 12:05:52;;;;;;;3.35;1.17;;;20.00;74.10;;;;;;5075493;28;20027;-71
2021/06/27 12:08:18;;;;;;;3.65;1.20;;;20.10;74.10;;;;;;5069036;28;20104;-71
2021/06/27 12:10:44;;;;;;;4.78;1.90;;;20.10;74.70;;;;;;5078751;28;20060;-71
2021/06/27 12:13:10;;;;;;;3.42;1.60;;;20.30;75.60;;;;;;5078695;28;20029;-72
2021/06/27 12:15:40;;;;;;;2.92;1.30;;;20.40;75.40;;;;;;5072773;28;20089;-69
2021/06/27 12:18:11;;;;;;;4.82;1.77;;;20.50;75.30;;;;;;5078272;28;20041;-72
2021/06/27 12:20:45;;;;;;;3.05;1.48;;;20.70;75.40;;;;;;5078272;28;20062;-71
2021/06/27 12:23:13;;;;;;;2.72;1.20;;;20.80;75.60;;;;;;5078448;28;20509;-69
2021/06/27 12:25:46;;;;;;;4.80;1.67;;;20.90;75.70;;;;;;5078430;28;20044;-69
2021/06/27 12:28:18;;;;;;;7.15;2.28;;;20.90;75.30;;;;;;5079159;28;20020;-70
2021/06/27 12:30:47;;;;;;;3.40;1.50;;;20.90;75.10;;;;;;5075471;28;20044;-69
2021/06/27 12:33:24;;;;;;;4.40;1.60;;;20.90;75.00;;;;;;5076733;28;20032;-69
2021/06/27 12:35:56;;;;;;;2.92;1.10;;;20.90;75.00;;;;;;5078282;28;20036;-70
2021/06/27 12:38:23;;;;;;;2.67;1.05;;;20.80;75.00;;;;;;5078404;28;20060;-69
2021/06/27 12:40:52;;;;;;;4.32;1.15;;;20.80;74.90;;;;;;5077835;28;20032;-69
2021/06/27 12:43:22;;;;;;;2.40;1.00;;;20.80;75.10;;;;;;5077890;28;20367;-69
2021/06/27 12:46:08;;;;;;;2.42;0.90;;;20.70;75.10;;;;;;5078480;28;20032;-70